createdAt,value
2022-11-30T00:00:06.310Z,12.70
2022-11-30T00:02:58.029Z,13.60
2022-11-30T00:05:43.639Z,12.57
2022-11-30T00:08:29.217Z,13.73
2022-11-30T00:11:21.026Z,11.27
2022-11-30T00:14:06.346Z,12.35
2022-11-30T00:16:51.717Z,12.10
2022-11-30T00:19:37.096Z,12.27
2022-11-30T00:22:22.572Z,12.18
2022-11-30T00:25:08.864Z,11.82
2022-11-30T00:27:54.275Z,12.43
2022-11-30T00:30:39.600Z,13.38
2022-11-30T00:33:25.164Z,12.50
2022-11-30T00:36:18.808Z,14.82
2022-11-30T00:39:04.239Z,13.63
2022-11-30T00:41:49.699Z,15.25
2022-11-30T00:44:35.370Z,13.50
2022-11-30T00:47:20.799Z,13.18
2022-11-30T00:50:06.769Z,13.60
2022-11-30T00:52:52.209Z,13.95
2022-11-30T00:55:37.678Z,13.65
2022-11-30T00:58:23.456Z,12.13
2022-11-30T01:01:08.614Z,14.07
2022-11-30T01:03:53.899Z,13.05
2022-11-30T01:06:39.282Z,12.75
2022-11-30T01:09:24.839Z,11.52
2022-11-30T01:12:10.238Z,15.07
2022-11-30T01:14:55.590Z,13.68
2022-11-30T01:17:40.976Z,13.88
2022-11-30T01:20:26.399Z,13.23
2022-11-30T01:23:11.999Z,13.75
2022-11-30T01:25:57.299Z,13.77
2022-11-30T01:28:45.903Z,13.73
2022-11-30T01:31:31.132Z,12.88
2022-11-30T01:34:16.515Z,13.93
2022-11-30T01:37:02.093Z,15.93
2022-11-30T01:39:47.388Z,14.68
2022-11-30T01:42:33.166Z,14.13
2022-11-30T01:45:18.480Z,12.85
2022-11-30T01:48:05.575Z,13.60
2022-11-30T01:50:50.784Z,14.10
2022-11-30T01:53:36.372Z,14.40
2022-11-30T01:56:21.708Z,14.02
2022-11-30T01:59:07.204Z,14.43
2022-11-30T02:01:54.572Z,13.95
2022-11-30T02:04:40.166Z,13.50
2022-11-30T02:07:26.150Z,13.68
2022-11-30T02:10:17.482Z,13.50
2022-11-30T02:13:54.011Z,14.18
2022-11-30T02:16:41.782Z,13.80
2022-11-30T02:20:04.511Z,13.85
2022-11-30T02:23:15.051Z,14.25
2022-11-30T02:26:06.057Z,12.80
2022-11-30T02:29:12.643Z,12.85
2022-11-30T02:32:12.494Z,13.25
2022-11-30T02:35:01.036Z,14.23
2022-11-30T02:37:46.923Z,15.75
2022-11-30T02:40:32.459Z,16.05
2022-11-30T02:43:19.932Z,14.35
2022-11-30T02:46:31.295Z,15.27
2022-11-30T02:49:32.712Z,14.77
2022-11-30T02:52:21.498Z,14.90
2022-11-30T02:55:14.652Z,14.00
2022-11-30T02:58:00.090Z,14.63
2022-11-30T03:00:45.654Z,16.23
2022-11-30T03:03:30.901Z,13.68
2022-11-30T03:06:16.316Z,15.75
2022-11-30T03:09:01.747Z,15.40
2022-11-30T03:11:46.924Z,14.85
2022-11-30T03:14:32.287Z,15.55
2022-11-30T03:17:18.284Z,14.52
2022-11-30T03:20:04.522Z,13.85
2022-11-30T03:22:49.794Z,14.63
2022-11-30T03:25:35.399Z,15.27
2022-11-30T03:28:20.607Z,13.23
2022-11-30T03:31:06.208Z,14.48
2022-11-30T03:33:51.486Z,14.65
2022-11-30T03:36:36.988Z,13.27
2022-11-30T03:39:23.456Z,14.30
2022-11-30T03:42:08.767Z,14.50
2022-11-30T03:44:54.054Z,13.45
2022-11-30T03:47:39.541Z,12.90
2022-11-30T03:50:24.881Z,12.70
2022-11-30T03:53:10.524Z,13.18
2022-11-30T03:55:58.024Z,11.95
2022-11-30T03:58:43.819Z,13.10
2022-11-30T04:01:29.060Z,10.35
2022-11-30T04:04:14.650Z,11.00
2022-11-30T04:07:00.274Z,13.20
2022-11-30T04:09:45.698Z,11.65
2022-11-30T04:12:31.208Z,12.30
2022-11-30T04:15:16.788Z,12.57
2022-11-30T04:18:02.221Z,11.88
2022-11-30T04:20:50.624Z,12.23
2022-11-30T04:23:38.668Z,12.63
2022-11-30T04:26:23.757Z,12.68
2022-11-30T04:29:09.118Z,13.70
2022-11-30T04:31:54.552Z,14.15
2022-11-30T04:34:39.763Z,13.82
2022-11-30T04:37:25.224Z,14.15
2022-11-30T04:40:10.932Z,14.63
2022-11-30T04:42:56.768Z,13.65
2022-11-30T04:45:43.963Z,13.55
2022-11-30T04:48:29.046Z,15.13
2022-11-30T04:51:14.528Z,16.48
2022-11-30T04:54:00.145Z,16.08
2022-11-30T04:56:45.480Z,14.75
2022-11-30T04:59:30.917Z,13.80
2022-11-30T05:02:16.231Z,14.80
2022-11-30T05:05:01.964Z,14.80
2022-11-30T05:07:54.401Z,14.20
2022-11-30T05:10:40.050Z,14.90
2022-11-30T05:13:25.985Z,13.80
2022-11-30T05:16:11.457Z,13.65
2022-11-30T05:18:56.773Z,14.60
2022-11-30T05:21:45.815Z,15.98
2022-11-30T05:24:31.449Z,15.52
2022-11-30T05:27:22.254Z,16.50
2022-11-30T05:30:08.320Z,15.43
2022-11-30T05:32:54.000Z,16.17
2022-11-30T05:35:39.373Z,15.63
2022-11-30T05:38:24.940Z,16.17
2022-11-30T05:41:10.271Z,15.15
2022-11-30T05:43:55.982Z,14.85
2022-11-30T05:46:41.476Z,16.65
2022-11-30T05:49:26.815Z,15.38
2022-11-30T05:52:12.165Z,14.68
2022-11-30T05:54:59.379Z,14.73
2022-11-30T05:57:44.387Z,14.65
2022-11-30T06:00:29.896Z,14.57
2022-11-30T06:03:15.265Z,15.63
2022-11-30T06:06:00.760Z,16.73
2022-11-30T06:08:48.301Z,14.25
2022-11-30T06:11:33.631Z,15.05
2022-11-30T06:14:19.035Z,15.57
2022-11-30T06:17:04.716Z,15.07
2022-11-30T06:19:49.843Z,15.52
2022-11-30T06:22:35.495Z,16.80
2022-11-30T06:25:21.037Z,17.58
2022-11-30T06:28:10.119Z,17.52
2022-11-30T06:30:59.546Z,18.17
2022-11-30T06:33:44.679Z,18.67
2022-11-30T06:36:35.704Z,18.92
2022-11-30T06:39:42.893Z,17.03
2022-11-30T06:42:29.859Z,18.00
2022-11-30T06:45:15.709Z,18.38
2022-11-30T06:48:00.824Z,18.25
2022-11-30T06:50:50.081Z,17.92
2022-11-30T06:53:36.180Z,17.73
2022-11-30T06:56:21.394Z,17.83
2022-11-30T06:59:06.856Z,16.98
2022-11-30T07:01:52.171Z,15.98
2022-11-30T07:04:37.622Z,17.17
2022-11-30T07:07:23.447Z,18.10
2022-11-30T07:10:09.314Z,18.17
2022-11-30T07:12:54.480Z,18.92
2022-11-30T07:15:43.375Z,22.67
2022-11-30T07:18:31.840Z,22.83
2022-11-30T07:21:17.676Z,23.27
2022-11-30T07:24:22.083Z,27.42
2022-11-30T07:27:07.096Z,23.92
2022-11-30T07:29:52.477Z,22.90
2022-11-30T07:32:37.997Z,26.13
2022-11-30T07:35:23.247Z,26.17
2022-11-30T07:38:10.002Z,27.23
2022-11-30T07:40:57.185Z,27.92
2022-11-30T07:43:42.358Z,24.77
2022-11-30T07:46:28.347Z,26.55
2022-11-30T07:49:13.772Z,27.40
2022-11-30T07:51:59.255Z,29.85
2022-11-30T07:54:44.912Z,27.58
2022-11-30T07:57:30.410Z,31.73
2022-11-30T08:00:16.306Z,32.78
2022-11-30T08:03:01.556Z,32.30
2022-11-30T08:05:47.142Z,30.75
2022-11-30T08:08:34.182Z,27.70
2022-11-30T08:11:22.392Z,28.77
2022-11-30T08:14:07.469Z,28.10
2022-11-30T08:16:52.829Z,27.70
2022-11-30T08:19:38.026Z,27.17
2022-11-30T08:22:23.428Z,23.67
2022-11-30T08:25:09.448Z,24.67
2022-11-30T08:27:54.651Z,23.95
2022-11-30T08:30:40.111Z,22.95
2022-11-30T08:33:28.262Z,24.75
2022-11-30T08:36:18.880Z,21.83
2022-11-30T08:59:42.800Z,25.05
2022-11-30T09:02:27.895Z,24.48
2022-11-30T09:05:14.110Z,23.23
2022-11-30T09:07:59.520Z,23.65
2022-11-30T09:10:44.853Z,23.55
2022-11-30T09:13:30.331Z,23.35
2022-11-30T09:16:18.034Z,28.13
2022-11-30T09:19:03.474Z,27.00
2022-11-30T09:21:51.994Z,26.60
2022-11-30T09:24:38.113Z,33.47
2022-11-30T09:27:24.332Z,27.63
2022-11-30T09:30:10.280Z,24.33
2022-11-30T09:32:55.689Z,25.02
2022-11-30T09:35:41.111Z,24.83
2022-11-30T09:38:26.865Z,25.02
2022-11-30T09:41:20.752Z,27.45
2022-11-30T09:44:21.000Z,23.95
2022-11-30T09:47:32.545Z,24.00
2022-11-30T09:50:23.601Z,22.90
2022-11-30T09:53:28.933Z,22.80
2022-11-30T09:56:27.348Z,25.30
2022-11-30T09:59:21.297Z,22.52
2022-11-30T10:02:16.499Z,22.30
2022-11-30T10:05:01.961Z,22.23
2022-11-30T10:08:13.836Z,22.02
2022-11-30T10:11:27.470Z,22.90
2022-11-30T10:14:42.701Z,20.58
2022-11-30T10:17:49.651Z,21.85
2022-11-30T10:20:45.969Z,22.30
2022-11-30T10:23:53.840Z,21.15
2022-11-30T10:26:45.499Z,22.58
2022-11-30T10:29:38.843Z,22.47
2022-11-30T10:32:33.836Z,19.38
2022-11-30T10:35:41.692Z,24.27
2022-11-30T10:38:34.489Z,19.67
2022-11-30T10:41:24.840Z,18.92
2022-11-30T10:44:40.067Z,19.08
2022-11-30T10:47:33.831Z,21.90
2022-11-30T10:50:20.386Z,17.92
2022-11-30T10:53:06.388Z,18.23
2022-11-30T10:56:01.419Z,21.95
2022-11-30T10:58:55.365Z,21.90
2022-11-30T11:01:41.799Z,21.42
2022-11-30T11:04:27.847Z,25.33
2022-11-30T11:07:14.596Z,21.35
2022-11-30T11:10:02.265Z,22.05
2022-11-30T11:12:51.069Z,23.85
2022-11-30T11:15:36.662Z,22.40
2022-11-30T11:18:34.038Z,22.63
2022-11-30T11:21:23.247Z,23.10
2022-11-30T11:24:10.735Z,24.20
2022-11-30T11:26:57.006Z,25.75
2022-11-30T11:29:42.775Z,24.67
2022-11-30T11:32:28.001Z,23.08
2022-11-30T11:35:33.828Z,23.70
2022-11-30T11:38:40.347Z,23.30
2022-11-30T11:41:38.138Z,23.88
2022-11-30T11:44:27.207Z,21.58
2022-11-30T11:47:25.325Z,21.63
2022-11-30T11:50:58.181Z,24.45
2022-11-30T11:53:51.627Z,26.92
2022-11-30T11:56:38.971Z,25.83
2022-11-30T11:59:56.819Z,24.77
2022-11-30T12:02:57.438Z,23.33
2022-11-30T12:05:49.995Z,27.80
2022-11-30T12:11:47.688Z,29.45
2022-11-30T12:14:34.154Z,25.52
2022-11-30T12:17:32.633Z,25.80
2022-11-30T12:20:23.641Z,28.75
2022-11-30T12:23:32.069Z,25.45
2022-11-30T12:26:47.065Z,26.42
2022-11-30T12:29:39.145Z,27.35
2022-11-30T12:32:46.011Z,28.40
2022-11-30T12:36:00.621Z,25.45
2022-11-30T12:38:49.227Z,26.58
2022-11-30T12:41:43.779Z,28.25
2022-11-30T12:45:24.415Z,31.40
2022-11-30T12:48:38.566Z,26.65
2022-11-30T12:51:32.434Z,28.58
2022-11-30T12:54:44.190Z,30.67
2022-11-30T12:57:41.303Z,32.75
2022-11-30T13:00:41.855Z,31.80
2022-11-30T13:03:30.470Z,32.58
2022-11-30T13:06:23.138Z,32.22
2022-11-30T13:09:26.148Z,30.13
2022-11-30T13:12:19.937Z,33.03
2022-11-30T13:15:15.731Z,30.58
2022-11-30T13:18:02.455Z,31.88
2022-11-30T13:21:06.853Z,31.27
2022-11-30T13:24:16.495Z,29.27
2022-11-30T13:27:24.777Z,30.20
2022-11-30T13:30:29.771Z,29.65
2022-11-30T13:33:33.837Z,29.20
2022-11-30T13:36:36.025Z,30.52
2022-11-30T13:39:24.748Z,28.83
2022-11-30T13:42:30.279Z,30.33
2022-11-30T13:45:15.564Z,30.08
2022-11-30T13:48:35.872Z,31.08
2022-11-30T13:51:39.518Z,29.10
2022-11-30T13:54:51.281Z,31.27
2022-11-30T13:57:36.787Z,30.85
2022-11-30T14:00:31.335Z,31.73
2022-11-30T14:03:22.785Z,30.00
2022-11-30T14:06:43.343Z,31.05
2022-11-30T14:09:40.776Z,28.00
2022-11-30T14:12:36.610Z,29.20
2022-11-30T14:15:52.866Z,28.98
2022-11-30T14:18:43.037Z,28.38
2022-11-30T14:21:33.475Z,32.15
2022-11-30T14:24:23.946Z,29.60
2022-11-30T14:27:16.426Z,28.17
2022-11-30T14:30:04.116Z,27.88
2022-11-30T14:32:59.771Z,31.50
2022-11-30T14:35:46.724Z,32.40
2022-11-30T14:38:31.893Z,29.02
2022-11-30T14:41:24.646Z,28.13
2022-11-30T14:44:14.382Z,28.65
2022-11-30T14:47:13.579Z,28.60
2022-11-30T14:50:05.692Z,28.92
2022-11-30T14:53:29.151Z,34.20
2022-11-30T14:56:44.133Z,31.05
2022-11-30T14:59:41.191Z,31.25
2022-11-30T15:02:35.283Z,30.00
2022-11-30T15:05:28.798Z,31.10
2022-11-30T15:08:16.519Z,31.13
2022-11-30T15:11:07.765Z,29.50
2022-11-30T15:13:56.333Z,29.25
2022-11-30T15:17:13.794Z,32.15
2022-11-30T15:19:59.235Z,28.80
2022-11-30T15:22:44.731Z,30.98
2022-11-30T15:25:39.211Z,33.40
2022-11-30T15:28:32.728Z,33.63
2022-11-30T15:31:18.592Z,32.42
2022-11-30T15:34:04.912Z,31.95
2022-11-30T15:36:56.994Z,34.72
2022-11-30T15:39:49.370Z,33.15
2022-11-30T15:45:32.136Z,33.20
2022-11-30T15:48:35.158Z,31.23
2022-11-30T15:51:24.510Z,32.13
2022-11-30T15:54:09.830Z,30.45
2022-11-30T15:56:57.686Z,33.80
2022-11-30T15:59:43.831Z,32.60
2022-11-30T16:02:34.921Z,30.08
2022-11-30T16:05:25.199Z,35.92
2022-11-30T16:08:18.098Z,33.55
2022-11-30T16:11:08.067Z,34.08
2022-11-30T16:13:53.619Z,29.83
2022-11-30T16:16:39.227Z,31.50
2022-11-30T16:19:24.773Z,29.52
2022-11-30T16:22:13.194Z,30.27
2022-11-30T16:24:58.611Z,29.35
2022-11-30T16:27:44.503Z,36.22
2022-11-30T16:30:30.447Z,33.03
2022-11-30T16:33:24.983Z,32.78
2022-11-30T16:36:16.354Z,35.85
2022-11-30T16:39:01.682Z,34.70
2022-11-30T16:41:47.087Z,39.28
2022-11-30T16:44:32.570Z,34.83
2022-11-30T16:47:18.104Z,35.80
2022-11-30T16:50:03.784Z,35.30
2022-11-30T16:52:49.043Z,34.92
2022-11-30T16:55:37.440Z,37.55
2022-11-30T16:58:23.211Z,34.65
2022-11-30T17:01:35.732Z,37.25
2022-11-30T17:04:24.050Z,40.90
2022-11-30T17:07:09.552Z,39.22
2022-11-30T17:09:54.969Z,39.40
2022-11-30T17:12:41.759Z,41.97
2022-11-30T17:15:27.463Z,45.55
2022-11-30T17:18:13.157Z,43.72
2022-11-30T17:20:58.782Z,44.85
2022-11-30T17:23:45.080Z,44.80
2022-11-30T17:26:30.404Z,45.38
2022-11-30T17:29:15.623Z,42.63
2022-11-30T17:32:00.739Z,49.60
2022-11-30T17:34:47.220Z,42.13
2022-11-30T17:37:32.567Z,42.60
2022-11-30T17:40:18.319Z,44.92
2022-11-30T17:43:03.692Z,44.45
2022-11-30T17:45:49.278Z,50.17
2022-11-30T17:48:34.944Z,46.30
2022-11-30T17:51:20.642Z,43.03
2022-11-30T17:54:05.999Z,44.88
2022-11-30T17:56:52.825Z,41.08
2022-11-30T17:59:37.998Z,43.65
2022-11-30T18:02:24.023Z,43.67
2022-11-30T18:05:09.669Z,39.53
2022-11-30T18:07:54.934Z,43.30
2022-11-30T18:10:45.883Z,40.40
2022-11-30T18:13:31.585Z,41.08
2022-11-30T18:16:19.425Z,41.05
2022-11-30T18:19:11.861Z,41.20
2022-11-30T18:21:57.102Z,45.90
2022-11-30T18:24:42.611Z,42.72
2022-11-30T18:27:28.038Z,41.67
2022-11-30T18:30:13.845Z,45.25
2022-11-30T18:32:59.251Z,43.45
2022-11-30T18:35:44.943Z,45.75
2022-11-30T18:38:35.872Z,49.67
2022-11-30T18:41:25.879Z,44.88
2022-11-30T18:44:11.692Z,41.63
2022-11-30T18:46:57.304Z,45.10
2022-11-30T18:49:42.652Z,43.22
2022-11-30T18:52:28.015Z,44.10
2022-11-30T18:55:13.518Z,42.35
2022-11-30T18:58:01.037Z,41.80
2022-11-30T19:00:46.601Z,40.80
2022-11-30T19:03:32.051Z,41.80
2022-11-30T19:06:17.618Z,41.85
2022-11-30T19:09:10.508Z,41.97
2022-11-30T19:11:57.950Z,39.83
2022-11-30T19:14:45.233Z,42.95
2022-11-30T19:17:31.843Z,43.70
2022-11-30T19:20:17.147Z,43.90
2022-11-30T19:23:02.629Z,44.45
2022-11-30T19:25:47.859Z,41.60
2022-11-30T19:28:35.356Z,40.05
2022-11-30T19:31:21.753Z,44.08
2022-11-30T19:34:12.518Z,40.95
2022-11-30T19:36:58.742Z,43.38
2022-11-30T19:39:44.255Z,52.72
2022-11-30T19:42:31.135Z,46.38
2022-11-30T19:45:16.545Z,48.05
2022-11-30T19:48:02.713Z,48.63
2022-11-30T19:50:48.184Z,46.40
2022-11-30T19:53:34.195Z,51.67
2022-11-30T19:56:19.412Z,51.05
2022-11-30T19:59:06.036Z,44.53
2022-11-30T20:01:52.073Z,45.35
2022-11-30T20:04:37.784Z,45.83
2022-11-30T20:07:22.881Z,45.50
2022-11-30T20:10:10.007Z,49.85
2022-11-30T20:12:55.362Z,44.03
2022-11-30T20:15:41.216Z,48.25
2022-11-30T20:18:26.975Z,50.30
2022-11-30T20:21:17.989Z,48.45
2022-11-30T20:24:06.576Z,47.53
2022-11-30T20:26:52.032Z,51.97
2022-11-30T20:29:37.481Z,49.15
2022-11-30T20:32:23.762Z,50.88
2022-11-30T20:35:10.134Z,50.35
2022-11-30T20:37:55.359Z,54.28
2022-11-30T20:40:46.866Z,49.67
2022-11-30T20:43:32.206Z,54.17
2022-11-30T20:46:29.384Z,47.10
2022-11-30T20:49:21.083Z,51.05
2022-11-30T20:52:06.502Z,56.90
2022-11-30T20:54:51.919Z,54.83
2022-11-30T20:57:37.522Z,54.97
2022-11-30T21:00:23.256Z,49.55
2022-11-30T21:03:08.355Z,48.38
2022-11-30T21:05:54.500Z,51.50
2022-11-30T21:08:40.739Z,54.83
2022-11-30T21:11:27.776Z,50.03
2022-11-30T21:14:13.938Z,52.78
2022-11-30T21:16:59.331Z,50.83
2022-11-30T21:19:44.752Z,52.17
2022-11-30T21:22:30.310Z,55.53
2022-11-30T21:25:15.756Z,51.60
2022-11-30T21:28:01.219Z,49.08
2022-11-30T21:30:46.658Z,53.70
2022-11-30T21:33:32.159Z,49.83
2022-11-30T21:36:17.591Z,51.28
2022-11-30T21:39:06.470Z,54.97
2022-11-30T21:41:52.404Z,54.70
2022-11-30T21:44:37.699Z,49.42
2022-11-30T21:47:23.219Z,51.33
2022-11-30T21:50:09.244Z,54.45
2022-11-30T21:52:54.516Z,53.13
2022-11-30T21:55:39.961Z,56.75
2022-11-30T21:58:25.327Z,54.40
2022-11-30T22:01:19.780Z,52.47
2022-11-30T22:04:06.766Z,59.17
2022-11-30T22:06:52.380Z,56.83
2022-11-30T22:09:37.779Z,53.58
2022-11-30T22:12:23.172Z,57.58
2022-11-30T22:15:09.199Z,61.08
2022-11-30T22:17:54.433Z,59.65
2022-11-30T22:20:39.851Z,64.35
2022-11-30T22:23:25.152Z,66.40
2022-11-30T22:26:17.001Z,64.07
2022-11-30T22:29:08.499Z,64.82
2022-11-30T22:31:54.160Z,64.93
2022-11-30T22:34:39.612Z,64.22
2022-11-30T22:37:25.011Z,69.25
2022-11-30T22:40:11.032Z,58.00
2022-11-30T22:42:56.372Z,72.65
2022-11-30T22:45:41.878Z,75.43
2022-11-30T22:48:30.033Z,65.35
2022-11-30T22:51:19.271Z,64.22
2022-11-30T22:54:05.483Z,72.20
2022-11-30T22:56:50.904Z,67.70
2022-11-30T22:59:36.222Z,69.10
2022-11-30T23:02:21.609Z,64.22
2022-11-30T23:05:07.250Z,65.22
2022-11-30T23:07:52.583Z,75.53
2022-11-30T23:10:37.971Z,75.70
2022-11-30T23:13:23.227Z,75.82
2022-11-30T23:16:10.174Z,77.95
2022-11-30T23:18:57.387Z,78.55
2022-11-30T23:21:45.293Z,74.70
2022-11-30T23:24:30.986Z,80.80
2022-11-30T23:27:16.196Z,76.93
2022-11-30T23:30:01.656Z,77.70
2022-11-30T23:32:47.115Z,84.95
2022-11-30T23:35:32.668Z,72.15
2022-11-30T23:38:17.876Z,78.88
2022-11-30T23:41:10.916Z,87.93
2022-11-30T23:43:56.743Z,75.97
2022-11-30T23:46:42.143Z,81.38
2022-11-30T23:49:27.842Z,76.63
2022-11-30T23:52:13.054Z,78.05
2022-11-30T23:54:58.584Z,75.72
2022-11-30T23:57:43.868Z,81.43
